sensor_id;sensor_type;location;lat;lon;timestamp;P1;durP1;ratioP1;P2;durP2;ratioP2
51288;SDS011;37372;52.294;5.152;2022-11-15T00:00:32;50.33;;;25.05;;
51288;SDS011;37372;52.294;5.152;2022-11-15T00:02:57;51.60;;;25.48;;
51288;SDS011;37372;52.294;5.152;2022-11-15T00:05:23;53.70;;;25.40;;
51288;SDS011;37372;52.294;5.152;2022-11-15T00:07:48;59.08;;;26.33;;
51288;SDS011;37372;52.294;5.152;2022-11-15T00:10:13;51.92;;;26.08;;
51288;SDS011;37372;52.294;5.152;2022-11-15T00:12:39;53.42;;;27.13;;
51288;SDS011;37372;52.294;5.152;2022-11-15T00:15:05;54.20;;;26.48;;
51288;SDS011;37372;52.294;5.152;2022-11-15T00:17:30;59.25;;;28.00;;
51288;SDS011;37372;52.294;5.152;2022-11-15T00:19:56;53.58;;;26.67;;
51288;SDS011;37372;52.294;5.152;2022-11-15T00:22:21;55.08;;;27.75;;
51288;SDS011;37372;52.294;5.152;2022-11-15T00:24:47;61.05;;;25.83;;
51288;SDS011;37372;52.294;5.152;2022-11-15T00:27:12;63.22;;;25.65;;
51288;SDS011;37372;52.294;5.152;2022-11-15T00:29:38;55.83;;;25.65;;
51288;SDS011;37372;52.294;5.152;2022-11-15T00:32:08;66.18;;;27.35;;
51288;SDS011;37372;52.294;5.152;2022-11-15T00:34:36;53.53;;;25.85;;
51288;SDS011;37372;52.294;5.152;2022-11-15T00:37:01;53.97;;;25.00;;
51288;SDS011;37372;52.294;5.152;2022-11-15T00:39:27;57.00;;;26.98;;
51288;SDS011;37372;52.294;5.152;2022-11-15T00:41:52;58.25;;;26.33;;
51288;SDS011;37372;52.294;5.152;2022-11-15T00:44:17;65.25;;;29.05;;
51288;SDS011;37372;52.294;5.152;2022-11-15T00:46:43;69.03;;;27.88;;
51288;SDS011;37372;52.294;5.152;2022-11-15T00:49:08;58.85;;;25.42;;
51288;SDS011;37372;52.294;5.152;2022-11-15T00:51:33;61.92;;;27.60;;
51288;SDS011;37372;52.294;5.152;2022-11-15T00:53:59;62.53;;;25.77;;
51288;SDS011;37372;52.294;5.152;2022-11-15T00:56:24;60.42;;;26.48;;
51288;SDS011;37372;52.294;5.152;2022-11-15T00:58:49;62.38;;;27.05;;
51288;SDS011;37372;52.294;5.152;2022-11-15T01:01:14;69.78;;;28.23;;
51288;SDS011;37372;52.294;5.152;2022-11-15T01:03:40;72.75;;;28.15;;
51288;SDS011;37372;52.294;5.152;2022-11-15T01:06:07;65.78;;;27.42;;
51288;SDS011;37372;52.294;5.152;2022-11-15T01:08:33;74.93;;;28.17;;
51288;SDS011;37372;52.294;5.152;2022-11-15T01:11:03;63.50;;;28.50;;
51288;SDS011;37372;52.294;5.152;2022-11-15T01:13:31;80.88;;;28.45;;
51288;SDS011;37372;52.294;5.152;2022-11-15T01:15:58;75.38;;;30.67;;
51288;SDS011;37372;52.294;5.152;2022-11-15T01:18:23;78.20;;;28.70;;
51288;SDS011;37372;52.294;5.152;2022-11-15T01:20:48;76.63;;;29.75;;
51288;SDS011;37372;52.294;5.152;2022-11-15T01:23:14;71.03;;;29.02;;
51288;SDS011;37372;52.294;5.152;2022-11-15T01:25:39;74.47;;;30.40;;
51288;SDS011;37372;52.294;5.152;2022-11-15T01:28:04;72.93;;;28.70;;
51288;SDS011;37372;52.294;5.152;2022-11-15T01:30:30;81.05;;;27.85;;
51288;SDS011;37372;52.294;5.152;2022-11-15T01:32:55;70.88;;;28.25;;
51288;SDS011;37372;52.294;5.152;2022-11-15T01:35:21;68.90;;;27.98;;
51288;SDS011;37372;52.294;5.152;2022-11-15T01:37:46;69.97;;;27.08;;
51288;SDS011;37372;52.294;5.152;2022-11-15T01:40:12;86.03;;;31.10;;
51288;SDS011;37372;52.294;5.152;2022-11-15T01:42:37;72.80;;;28.55;;
51288;SDS011;37372;52.294;5.152;2022-11-15T01:45:02;83.18;;;29.10;;
51288;SDS011;37372;52.294;5.152;2022-11-15T01:47:33;71.35;;;28.33;;
51288;SDS011;37372;52.294;5.152;2022-11-15T01:50:06;82.53;;;31.43;;
51288;SDS011;37372;52.294;5.152;2022-11-15T01:52:35;76.68;;;29.23;;
51288;SDS011;37372;52.294;5.152;2022-11-15T01:57:37;86.50;;;31.27;;
51288;SDS011;37372;52.294;5.152;2022-11-15T02:00:04;85.10;;;31.00;;
51288;SDS011;37372;52.294;5.152;2022-11-15T02:02:31;80.28;;;32.00;;
51288;SDS011;37372;52.294;5.152;2022-11-15T02:04:57;86.88;;;30.23;;
51288;SDS011;37372;52.294;5.152;2022-11-15T02:07:23;75.60;;;29.60;;
51288;SDS011;37372;52.294;5.152;2022-11-15T02:09:49;90.35;;;31.60;;
51288;SDS011;37372;52.294;5.152;2022-11-15T02:12:17;86.82;;;29.65;;
51288;SDS011;37372;52.294;5.152;2022-11-15T02:14:47;90.10;;;33.78;;
51288;SDS011;37372;52.294;5.152;2022-11-15T02:17:38;85.50;;;31.40;;
51288;SDS011;37372;52.294;5.152;2022-11-15T02:23:31;82.93;;;30.05;;
51288;SDS011;37372;52.294;5.152;2022-11-15T02:36:43;88.85;;;33.55;;
51288;SDS011;37372;52.294;5.152;2022-11-15T02:42:07;95.25;;;35.00;;
51288;SDS011;37372;52.294;5.152;2022-11-15T02:44:56;94.70;;;35.33;;
51288;SDS011;37372;52.294;5.152;2022-11-15T02:47:27;113.30;;;37.95;;
51288;SDS011;37372;52.294;5.152;2022-11-15T02:50:02;88.70;;;34.15;;
51288;SDS011;37372;52.294;5.152;2022-11-15T02:52:32;97.95;;;35.35;;
51288;SDS011;37372;52.294;5.152;2022-11-15T02:54:58;89.65;;;34.00;;
51288;SDS011;37372;52.294;5.152;2022-11-15T03:00:25;75.85;;;33.95;;
51288;SDS011;37372;52.294;5.152;2022-11-15T03:03:05;88.80;;;34.58;;
51288;SDS011;37372;52.294;5.152;2022-11-15T03:09:03;94.23;;;34.90;;
51288;SDS011;37372;52.294;5.152;2022-11-15T03:11:36;89.53;;;36.45;;
51288;SDS011;37372;52.294;5.152;2022-11-15T03:17:30;90.57;;;36.30;;
51288;SDS011;37372;52.294;5.152;2022-11-15T03:20:04;86.78;;;35.47;;
51288;SDS011;37372;52.294;5.152;2022-11-15T03:22:33;105.32;;;39.65;;
51288;SDS011;37372;52.294;5.152;2022-11-15T03:25:06;100.18;;;37.83;;
51288;SDS011;37372;52.294;5.152;2022-11-15T03:27:37;102.93;;;37.38;;
51288;SDS011;37372;52.294;5.152;2022-11-15T03:30:07;104.68;;;37.33;;
51288;SDS011;37372;52.294;5.152;2022-11-15T03:32:38;107.85;;;35.67;;
51288;SDS011;37372;52.294;5.152;2022-11-15T03:35:11;101.28;;;38.53;;
51288;SDS011;37372;52.294;5.152;2022-11-15T03:40:24;102.57;;;39.30;;
51288;SDS011;37372;52.294;5.152;2022-11-15T03:42:57;109.97;;;37.97;;
51288;SDS011;37372;52.294;5.152;2022-11-15T03:45:34;92.55;;;38.33;;
51288;SDS011;37372;52.294;5.152;2022-11-15T03:48:10;101.88;;;39.80;;
51288;SDS011;37372;52.294;5.152;2022-11-15T03:50:39;112.15;;;35.80;;
51288;SDS011;37372;52.294;5.152;2022-11-15T03:53:07;109.43;;;39.50;;
51288;SDS011;37372;52.294;5.152;2022-11-15T03:55:33;111.10;;;39.88;;
51288;SDS011;37372;52.294;5.152;2022-11-15T03:57:59;96.07;;;37.25;;
51288;SDS011;37372;52.294;5.152;2022-11-15T04:00:26;104.88;;;38.42;;
51288;SDS011;37372;52.294;5.152;2022-11-15T04:02:52;121.10;;;39.80;;
51288;SDS011;37372;52.294;5.152;2022-11-15T04:05:17;112.82;;;40.65;;
51288;SDS011;37372;52.294;5.152;2022-11-15T04:07:43;106.75;;;39.97;;
51288;SDS011;37372;52.294;5.152;2022-11-15T04:10:08;107.38;;;40.15;;
51288;SDS011;37372;52.294;5.152;2022-11-15T04:12:36;98.75;;;37.97;;
51288;SDS011;37372;52.294;5.152;2022-11-15T04:15:03;106.65;;;39.55;;
51288;SDS011;37372;52.294;5.152;2022-11-15T04:17:41;99.07;;;37.50;;
51288;SDS011;37372;52.294;5.152;2022-11-15T04:23:08;90.80;;;38.70;;
51288;SDS011;37372;52.294;5.152;2022-11-15T04:25:54;99.00;;;38.70;;
51288;SDS011;37372;52.294;5.152;2022-11-15T04:28:21;89.93;;;38.88;;
51288;SDS011;37372;52.294;5.152;2022-11-15T04:30:47;93.03;;;39.30;;
51288;SDS011;37372;52.294;5.152;2022-11-15T04:33:13;94.65;;;35.45;;
51288;SDS011;37372;52.294;5.152;2022-11-15T04:35:39;88.30;;;36.13;;
51288;SDS011;37372;52.294;5.152;2022-11-15T04:38:05;84.43;;;37.67;;
51288;SDS011;37372;52.294;5.152;2022-11-15T04:40:32;95.63;;;38.78;;
51288;SDS011;37372;52.294;5.152;2022-11-15T04:42:57;92.10;;;36.40;;
51288;SDS011;37372;52.294;5.152;2022-11-15T04:45:23;84.60;;;37.05;;
51288;SDS011;37372;52.294;5.152;2022-11-15T04:47:48;91.75;;;36.65;;
51288;SDS011;37372;52.294;5.152;2022-11-15T04:50:14;83.82;;;36.38;;
51288;SDS011;37372;52.294;5.152;2022-11-15T04:52:41;79.00;;;36.63;;
51288;SDS011;37372;52.294;5.152;2022-11-15T04:55:08;78.38;;;36.28;;
51288;SDS011;37372;52.294;5.152;2022-11-15T04:57:35;88.53;;;39.10;;
51288;SDS011;37372;52.294;5.152;2022-11-15T05:00:02;86.53;;;36.60;;
51288;SDS011;37372;52.294;5.152;2022-11-15T05:02:29;75.25;;;35.67;;
51288;SDS011;37372;52.294;5.152;2022-11-15T05:05:14;79.50;;;34.38;;
51288;SDS011;37372;52.294;5.152;2022-11-15T05:07:40;84.60;;;36.17;;
51288;SDS011;37372;52.294;5.152;2022-11-15T05:10:05;75.72;;;33.42;;
51288;SDS011;37372;52.294;5.152;2022-11-15T05:12:30;78.50;;;35.25;;
51288;SDS011;37372;52.294;5.152;2022-11-15T05:14:58;87.43;;;35.63;;
51288;SDS011;37372;52.294;5.152;2022-11-15T05:17:24;77.93;;;32.78;;
51288;SDS011;37372;52.294;5.152;2022-11-15T05:19:49;73.38;;;31.98;;
51288;SDS011;37372;52.294;5.152;2022-11-15T05:22:16;73.82;;;31.75;;
51288;SDS011;37372;52.294;5.152;2022-11-15T05:24:42;77.03;;;33.22;;
51288;SDS011;37372;52.294;5.152;2022-11-15T05:27:07;82.43;;;33.03;;
51288;SDS011;37372;52.294;5.152;2022-11-15T05:29:33;81.88;;;33.83;;
51288;SDS011;37372;52.294;5.152;2022-11-15T05:31:58;92.25;;;35.28;;
51288;SDS011;37372;52.294;5.152;2022-11-15T05:34:24;83.45;;;35.25;;
51288;SDS011;37372;52.294;5.152;2022-11-15T05:36:50;75.32;;;34.72;;
51288;SDS011;37372;52.294;5.152;2022-11-15T05:39:15;74.05;;;32.83;;
51288;SDS011;37372;52.294;5.152;2022-11-15T05:41:42;77.20;;;35.65;;
51288;SDS011;37372;52.294;5.152;2022-11-15T05:44:09;80.82;;;34.13;;
51288;SDS011;37372;52.294;5.152;2022-11-15T05:46:36;72.25;;;32.67;;
51288;SDS011;37372;52.294;5.152;2022-11-15T05:49:04;76.00;;;33.05;;
51288;SDS011;37372;52.294;5.152;2022-11-15T05:51:32;72.40;;;31.20;;
51288;SDS011;37372;52.294;5.152;2022-11-15T05:53:58;68.72;;;32.72;;
51288;SDS011;37372;52.294;5.152;2022-11-15T05:56:25;67.82;;;29.00;;
51288;SDS011;37372;52.294;5.152;2022-11-15T05:58:51;73.10;;;31.70;;
51288;SDS011;37372;52.294;5.152;2022-11-15T06:01:18;76.63;;;32.72;;
51288;SDS011;37372;52.294;5.152;2022-11-15T06:03:43;68.97;;;31.30;;
51288;SDS011;37372;52.294;5.152;2022-11-15T06:06:09;81.70;;;31.70;;
51288;SDS011;37372;52.294;5.152;2022-11-15T06:08:34;72.82;;;30.95;;
51288;SDS011;37372;52.294;5.152;2022-11-15T06:11:06;65.53;;;31.83;;
51288;SDS011;37372;52.294;5.152;2022-11-15T06:13:32;67.03;;;32.20;;
51288;SDS011;37372;52.294;5.152;2022-11-15T06:15:58;78.72;;;31.77;;
51288;SDS011;37372;52.294;5.152;2022-11-15T06:18:23;63.47;;;32.22;;
51288;SDS011;37372;52.294;5.152;2022-11-15T06:20:49;68.15;;;32.97;;
51288;SDS011;37372;52.294;5.152;2022-11-15T06:23:14;67.50;;;30.85;;
51288;SDS011;37372;52.294;5.152;2022-11-15T06:25:39;67.82;;;31.42;;
51288;SDS011;37372;52.294;5.152;2022-11-15T06:28:05;65.50;;;31.17;;
51288;SDS011;37372;52.294;5.152;2022-11-15T06:30:30;67.80;;;31.90;;
51288;SDS011;37372;52.294;5.152;2022-11-15T06:32:59;65.47;;;30.75;;
51288;SDS011;37372;52.294;5.152;2022-11-15T06:35:26;66.30;;;31.50;;
51288;SDS011;37372;52.294;5.152;2022-11-15T06:37:52;57.00;;;29.30;;
51288;SDS011;37372;52.294;5.152;2022-11-15T06:40:17;61.72;;;29.48;;
51288;SDS011;37372;52.294;5.152;2022-11-15T06:42:43;59.42;;;29.75;;
51288;SDS011;37372;52.294;5.152;2022-11-15T06:45:08;68.20;;;30.83;;
51288;SDS011;37372;52.294;5.152;2022-11-15T06:47:33;70.20;;;31.38;;
51288;SDS011;37372;52.294;5.152;2022-11-15T06:49:59;64.25;;;29.83;;
51288;SDS011;37372;52.294;5.152;2022-11-15T06:52:24;60.90;;;30.00;;
51288;SDS011;37372;52.294;5.152;2022-11-15T06:54:50;62.30;;;29.40;;
51288;SDS011;37372;52.294;5.152;2022-11-15T06:57:15;66.25;;;29.25;;
51288;SDS011;37372;52.294;5.152;2022-11-15T06:59:40;72.90;;;30.88;;
51288;SDS011;37372;52.294;5.152;2022-11-15T07:02:06;58.50;;;29.90;;
51288;SDS011;37372;52.294;5.152;2022-11-15T07:04:36;63.90;;;29.75;;
51288;SDS011;37372;52.294;5.152;2022-11-15T07:07:01;64.20;;;30.77;;
51288;SDS011;37372;52.294;5.152;2022-11-15T07:09:27;62.10;;;29.73;;
51288;SDS011;37372;52.294;5.152;2022-11-15T07:11:52;63.15;;;30.10;;
51288;SDS011;37372;52.294;5.152;2022-11-15T07:14:17;70.18;;;30.58;;
51288;SDS011;37372;52.294;5.152;2022-11-15T07:16:43;61.05;;;29.27;;
51288;SDS011;37372;52.294;5.152;2022-11-15T07:19:08;73.65;;;30.63;;
51288;SDS011;37372;52.294;5.152;2022-11-15T07:21:34;61.65;;;29.70;;
51288;SDS011;37372;52.294;5.152;2022-11-15T07:23:59;57.35;;;28.17;;
51288;SDS011;37372;52.294;5.152;2022-11-15T07:26:24;64.13;;;29.20;;
51288;SDS011;37372;52.294;5.152;2022-11-15T07:28:50;53.83;;;28.65;;
51288;SDS011;37372;52.294;5.152;2022-11-15T07:31:15;56.15;;;28.55;;
51288;SDS011;37372;52.294;5.152;2022-11-15T07:33:40;53.60;;;26.65;;
51288;SDS011;37372;52.294;5.152;2022-11-15T07:36:06;60.97;;;29.92;;
51288;SDS011;37372;52.294;5.152;2022-11-15T07:38:32;57.15;;;26.42;;
51288;SDS011;37372;52.294;5.152;2022-11-15T07:41:00;58.05;;;27.70;;
51288;SDS011;37372;52.294;5.152;2022-11-15T07:43:27;56.97;;;27.83;;
51288;SDS011;37372;52.294;5.152;2022-11-15T07:45:53;66.43;;;27.10;;
51288;SDS011;37372;52.294;5.152;2022-11-15T07:48:18;55.05;;;25.83;;
51288;SDS011;37372;52.294;5.152;2022-11-15T07:50:44;56.22;;;26.95;;
51288;SDS011;37372;52.294;5.152;2022-11-15T07:53:09;62.47;;;29.00;;
51288;SDS011;37372;52.294;5.152;2022-11-15T07:55:35;59.38;;;26.60;;
51288;SDS011;37372;52.294;5.152;2022-11-15T07:58:05;60.47;;;26.10;;
51288;SDS011;37372;52.294;5.152;2022-11-15T08:00:34;63.92;;;28.40;;
51288;SDS011;37372;52.294;5.152;2022-11-15T08:03:11;59.72;;;27.05;;
51288;SDS011;37372;52.294;5.152;2022-11-15T08:05:38;57.40;;;26.23;;
51288;SDS011;37372;52.294;5.152;2022-11-15T08:08:04;53.42;;;26.02;;
51288;SDS011;37372;52.294;5.152;2022-11-15T08:10:30;59.05;;;27.98;;
51288;SDS011;37372;52.294;5.152;2022-11-15T08:13:03;58.10;;;26.73;;
51288;SDS011;37372;52.294;5.152;2022-11-15T08:15:30;49.95;;;26.10;;
51288;SDS011;37372;52.294;5.152;2022-11-15T08:18:03;49.30;;;23.95;;
51288;SDS011;37372;52.294;5.152;2022-11-15T08:23:01;61.60;;;24.48;;
51288;SDS011;37372;52.294;5.152;2022-11-15T08:25:29;55.35;;;23.67;;
51288;SDS011;37372;52.294;5.152;2022-11-15T08:27:57;55.75;;;25.70;;
51288;SDS011;37372;52.294;5.152;2022-11-15T08:30:24;56.25;;;23.35;;
51288;SDS011;37372;52.294;5.152;2022-11-15T08:32:50;57.22;;;24.08;;
51288;SDS011;37372;52.294;5.152;2022-11-15T08:35:17;46.33;;;24.33;;
51288;SDS011;37372;52.294;5.152;2022-11-15T08:37:43;48.97;;;23.23;;
51288;SDS011;37372;52.294;5.152;2022-11-15T08:40:09;51.50;;;22.63;;
51288;SDS011;37372;52.294;5.152;2022-11-15T08:42:34;48.88;;;21.48;;
51288;SDS011;37372;52.294;5.152;2022-11-15T08:45:00;47.53;;;22.13;;
51288;SDS011;37372;52.294;5.152;2022-11-15T08:47:25;44.13;;;22.23;;
51288;SDS011;37372;52.294;5.152;2022-11-15T08:49:51;53.05;;;23.33;;
51288;SDS011;37372;52.294;5.152;2022-11-15T08:52:17;49.80;;;22.52;;
51288;SDS011;37372;52.294;5.152;2022-11-15T08:54:42;40.22;;;21.38;;
51288;SDS011;37372;52.294;5.152;2022-11-15T08:57:07;43.42;;;21.30;;
51288;SDS011;37372;52.294;5.152;2022-11-15T08:59:34;41.05;;;20.98;;
51288;SDS011;37372;52.294;5.152;2022-11-15T09:02:00;38.55;;;18.95;;
51288;SDS011;37372;52.294;5.152;2022-11-15T09:04:25;39.85;;;19.23;;
51288;SDS011;37372;52.294;5.152;2022-11-15T09:06:51;36.75;;;19.35;;
51288;SDS011;37372;52.294;5.152;2022-11-15T09:09:16;40.50;;;19.30;;
51288;SDS011;37372;52.294;5.152;2022-11-15T09:11:41;39.97;;;19.33;;
51288;SDS011;37372;52.294;5.152;2022-11-15T09:14:07;38.72;;;18.85;;
51288;SDS011;37372;52.294;5.152;2022-11-15T09:16:32;37.10;;;18.63;;
51288;SDS011;37372;52.294;5.152;2022-11-15T09:18:57;42.75;;;20.80;;
51288;SDS011;37372;52.294;5.152;2022-11-15T09:21:23;37.58;;;17.90;;
51288;SDS011;37372;52.294;5.152;2022-11-15T09:23:51;29.83;;;14.77;;
51288;SDS011;37372;52.294;5.152;2022-11-15T09:26:17;33.42;;;16.77;;
51288;SDS011;37372;52.294;5.152;2022-11-15T09:28:43;32.60;;;16.17;;
51288;SDS011;37372;52.294;5.152;2022-11-15T09:31:09;25.65;;;14.05;;
51288;SDS011;37372;52.294;5.152;2022-11-15T09:33:35;32.17;;;16.08;;
51288;SDS011;37372;52.294;5.152;2022-11-15T09:36:01;28.33;;;14.20;;
51288;SDS011;37372;52.294;5.152;2022-11-15T09:38:31;29.58;;;13.57;;
51288;SDS011;37372;52.294;5.152;2022-11-15T09:43:56;23.52;;;12.98;;
51288;SDS011;37372;52.294;5.152;2022-11-15T09:49:23;23.50;;;11.52;;
51288;SDS011;37372;52.294;5.152;2022-11-15T09:51:49;17.73;;;10.15;;
51288;SDS011;37372;52.294;5.152;2022-11-15T09:54:19;17.20;;;11.20;;
51288;SDS011;37372;52.294;5.152;2022-11-15T09:56:52;14.77;;;8.40;;
51288;SDS011;37372;52.294;5.152;2022-11-15T10:05:07;18.77;;;8.50;;
51288;SDS011;37372;52.294;5.152;2022-11-15T10:13:16;19.73;;;8.43;;
51288;SDS011;37372;52.294;5.152;2022-11-15T10:15:47;14.05;;;7.43;;
51288;SDS011;37372;52.294;5.152;2022-11-15T10:20:50;11.50;;;7.32;;
51288;SDS011;37372;52.294;5.152;2022-11-15T10:23:23;17.45;;;6.95;;
51288;SDS011;37372;52.294;5.152;2022-11-15T10:25:52;12.85;;;6.68;;
51288;SDS011;37372;52.294;5.152;2022-11-15T10:28:22;11.43;;;6.18;;
51288;SDS011;37372;52.294;5.152;2022-11-15T10:30:53;12.63;;;6.00;;
51288;SDS011;37372;52.294;5.152;2022-11-15T10:33:25;16.30;;;6.65;;
51288;SDS011;37372;52.294;5.152;2022-11-15T10:44:00;16.80;;;7.40;;
51288;SDS011;37372;52.294;5.152;2022-11-15T10:46:26;10.88;;;6.03;;
51288;SDS011;37372;52.294;5.152;2022-11-15T10:48:51;13.65;;;5.45;;
51288;SDS011;37372;52.294;5.152;2022-11-15T10:51:35;9.57;;;5.03;;
51288;SDS011;37372;52.294;5.152;2022-11-15T10:54:10;12.80;;;5.85;;
51288;SDS011;37372;52.294;5.152;2022-11-15T10:56:38;13.43;;;4.97;;
51288;SDS011;37372;52.294;5.152;2022-11-15T10:59:05;8.82;;;4.70;;
51288;SDS011;37372;52.294;5.152;2022-11-15T11:01:45;9.10;;;4.57;;
51288;SDS011;37372;52.294;5.152;2022-11-15T11:04:11;10.07;;;4.80;;
51288;SDS011;37372;52.294;5.152;2022-11-15T11:06:57;8.60;;;5.00;;
51288;SDS011;37372;52.294;5.152;2022-11-15T11:11:54;13.95;;;5.07;;
51288;SDS011;37372;52.294;5.152;2022-11-15T11:14:27;10.30;;;5.30;;
51288;SDS011;37372;52.294;5.152;2022-11-15T11:22:19;9.43;;;4.57;;
51288;SDS011;37372;52.294;5.152;2022-11-15T11:27:43;6.82;;;4.00;;
51288;SDS011;37372;52.294;5.152;2022-11-15T11:30:38;9.65;;;3.83;;
51288;SDS011;37372;52.294;5.152;2022-11-15T11:41:45;6.00;;;3.28;;
51288;SDS011;37372;52.294;5.152;2022-11-15T12:00:12;7.45;;;2.78;;
51288;SDS011;37372;52.294;5.152;2022-11-15T12:02:43;7.28;;;1.90;;
51288;SDS011;37372;52.294;5.152;2022-11-15T12:05:22;5.43;;;1.50;;
51288;SDS011;37372;52.294;5.152;2022-11-15T12:07:54;5.60;;;1.75;;
51288;SDS011;37372;52.294;5.152;2022-11-15T12:10:35;10.40;;;1.70;;
51288;SDS011;37372;52.294;5.152;2022-11-15T12:13:16;13.02;;;2.03;;
51288;SDS011;37372;52.294;5.152;2022-11-15T12:15:55;8.75;;;2.72;;
51288;SDS011;37372;52.294;5.152;2022-11-15T12:18:27;8.55;;;2.63;;
51288;SDS011;37372;52.294;5.152;2022-11-15T12:20:58;5.53;;;1.58;;
51288;SDS011;37372;52.294;5.152;2022-11-15T12:23:32;5.82;;;2.00;;
51288;SDS011;37372;52.294;5.152;2022-11-15T12:26:05;9.75;;;1.60;;
51288;SDS011;37372;52.294;5.152;2022-11-15T12:31:10;3.75;;;1.17;;
51288;SDS011;37372;52.294;5.152;2022-11-15T12:33:41;2.85;;;1.30;;
51288;SDS011;37372;52.294;5.152;2022-11-15T12:38:59;3.17;;;1.27;;
51288;SDS011;37372;52.294;5.152;2022-11-15T12:41:28;11.10;;;1.85;;
51288;SDS011;37372;52.294;5.152;2022-11-15T12:43:54;5.57;;;1.52;;
51288;SDS011;37372;52.294;5.152;2022-11-15T12:46:22;5.90;;;1.90;;
51288;SDS011;37372;52.294;5.152;2022-11-15T13:00:35;3.28;;;0.90;;
51288;SDS011;37372;52.294;5.152;2022-11-15T13:12:54;4.25;;;1.02;;
51288;SDS011;37372;52.294;5.152;2022-11-15T13:18:29;4.97;;;0.77;;
51288;SDS011;37372;52.294;5.152;2022-11-15T13:21:00;4.18;;;0.98;;
51288;SDS011;37372;52.294;5.152;2022-11-15T13:23:26;2.88;;;0.90;;
51288;SDS011;37372;52.294;5.152;2022-11-15T13:28:35;4.63;;;1.02;;
51288;SDS011;37372;52.294;5.152;2022-11-15T13:33:49;5.82;;;0.95;;
51288;SDS011;37372;52.294;5.152;2022-11-15T13:36:23;3.72;;;1.00;;
51288;SDS011;37372;52.294;5.152;2022-11-15T13:38:59;7.40;;;1.48;;
51288;SDS011;37372;52.294;5.152;2022-11-15T13:41:30;6.00;;;1.23;;
51288;SDS011;37372;52.294;5.152;2022-11-15T13:43:58;4.20;;;1.25;;
51288;SDS011;37372;52.294;5.152;2022-11-15T13:46:28;4.95;;;1.65;;
51288;SDS011;37372;52.294;5.152;2022-11-15T13:49:05;4.25;;;1.10;;
51288;SDS011;37372;52.294;5.152;2022-11-15T13:51:42;4.82;;;0.93;;
51288;SDS011;37372;52.294;5.152;2022-11-15T13:56:37;5.53;;;2.13;;
51288;SDS011;37372;52.294;5.152;2022-11-15T13:59:09;5.63;;;1.10;;
51288;SDS011;37372;52.294;5.152;2022-11-15T14:01:41;9.00;;;2.60;;
51288;SDS011;37372;52.294;5.152;2022-11-15T14:04:09;7.30;;;1.10;;
51288;SDS011;37372;52.294;5.152;2022-11-15T14:06:44;3.28;;;0.88;;
51288;SDS011;37372;52.294;5.152;2022-11-15T14:15:34;3.65;;;0.80;;
51288;SDS011;37372;52.294;5.152;2022-11-15T14:18:02;4.65;;;1.90;;
51288;SDS011;37372;52.294;5.152;2022-11-15T14:20:31;4.68;;;1.30;;
51288;SDS011;37372;52.294;5.152;2022-11-15T14:23:00;6.97;;;2.67;;
51288;SDS011;37372;52.294;5.152;2022-11-15T14:25:28;9.50;;;1.67;;
51288;SDS011;37372;52.294;5.152;2022-11-15T14:28:15;8.85;;;1.83;;
51288;SDS011;37372;52.294;5.152;2022-11-15T14:30:44;5.97;;;1.92;;
51288;SDS011;37372;52.294;5.152;2022-11-15T14:35:46;4.68;;;2.05;;
51288;SDS011;37372;52.294;5.152;2022-11-15T14:38:11;8.45;;;3.80;;
51288;SDS011;37372;52.294;5.152;2022-11-15T14:40:36;10.10;;;2.03;;
51288;SDS011;37372;52.294;5.152;2022-11-15T14:43:02;3.22;;;2.00;;
51288;SDS011;37372;52.294;5.152;2022-11-15T14:45:27;7.95;;;2.10;;
51288;SDS011;37372;52.294;5.152;2022-11-15T14:47:52;6.50;;;3.65;;
51288;SDS011;37372;52.294;5.152;2022-11-15T14:50:19;6.90;;;1.55;;
51288;SDS011;37372;52.294;5.152;2022-11-15T14:52:46;8.88;;;3.92;;
51288;SDS011;37372;52.294;5.152;2022-11-15T14:57:49;4.57;;;1.25;;
51288;SDS011;37372;52.294;5.152;2022-11-15T15:00:14;5.05;;;1.33;;
51288;SDS011;37372;52.294;5.152;2022-11-15T15:02:41;4.63;;;1.42;;
51288;SDS011;37372;52.294;5.152;2022-11-15T15:05:13;11.32;;;3.90;;
51288;SDS011;37372;52.294;5.152;2022-11-15T15:07:38;6.90;;;1.77;;
51288;SDS011;37372;52.294;5.152;2022-11-15T15:10:04;5.60;;;1.92;;
51288;SDS011;37372;52.294;5.152;2022-11-15T15:12:29;5.18;;;2.08;;
51288;SDS011;37372;52.294;5.152;2022-11-15T15:14:55;8.20;;;3.15;;
51288;SDS011;37372;52.294;5.152;2022-11-15T15:17:20;10.30;;;4.00;;
51288;SDS011;37372;52.294;5.152;2022-11-15T15:19:45;6.82;;;1.67;;
51288;SDS011;37372;52.294;5.152;2022-11-15T15:22:12;8.13;;;1.98;;
51288;SDS011;37372;52.294;5.152;2022-11-15T15:24:40;5.22;;;1.40;;
51288;SDS011;37372;52.294;5.152;2022-11-15T15:27:05;5.30;;;2.13;;
51288;SDS011;37372;52.294;5.152;2022-11-15T15:29:31;5.18;;;1.92;;
51288;SDS011;37372;52.294;5.152;2022-11-15T15:31:56;7.30;;;2.35;;
51288;SDS011;37372;52.294;5.152;2022-11-15T15:34:21;5.40;;;1.90;;
51288;SDS011;37372;52.294;5.152;2022-11-15T15:36:47;6.68;;;1.25;;
51288;SDS011;37372;52.294;5.152;2022-11-15T15:39:12;4.65;;;1.60;;
51288;SDS011;37372;52.294;5.152;2022-11-15T15:41:39;6.40;;;1.70;;
51288;SDS011;37372;52.294;5.152;2022-11-15T15:44:04;7.78;;;1.98;;
51288;SDS011;37372;52.294;5.152;2022-11-15T15:46:30;7.65;;;1.73;;
51288;SDS011;37372;52.294;5.152;2022-11-15T15:48:55;5.47;;;1.38;;
51288;SDS011;37372;52.294;5.152;2022-11-15T15:51:20;10.30;;;2.58;;
51288;SDS011;37372;52.294;5.152;2022-11-15T15:53:46;5.47;;;2.70;;
51288;SDS011;37372;52.294;5.152;2022-11-15T15:56:12;6.88;;;2.97;;
51288;SDS011;37372;52.294;5.152;2022-11-15T15:58:38;6.10;;;4.30;;
51288;SDS011;37372;52.294;5.152;2022-11-15T16:01:03;6.30;;;2.65;;
51288;SDS011;37372;52.294;5.152;2022-11-15T16:03:29;3.47;;;1.70;;
51288;SDS011;37372;52.294;5.152;2022-11-15T16:05:54;4.88;;;1.90;;
51288;SDS011;37372;52.294;5.152;2022-11-15T16:08:21;5.93;;;1.58;;
51288;SDS011;37372;52.294;5.152;2022-11-15T16:10:47;5.75;;;1.42;;
51288;SDS011;37372;52.294;5.152;2022-11-15T16:13:13;4.82;;;1.42;;
51288;SDS011;37372;52.294;5.152;2022-11-15T16:15:38;7.57;;;1.30;;
51288;SDS011;37372;52.294;5.152;2022-11-15T16:18:04;5.18;;;2.35;;
51288;SDS011;37372;52.294;5.152;2022-11-15T16:23:01;3.60;;;1.85;;
51288;SDS011;37372;52.294;5.152;2022-11-15T16:25:28;4.32;;;1.90;;
51288;SDS011;37372;52.294;5.152;2022-11-15T16:27:53;5.50;;;1.67;;
51288;SDS011;37372;52.294;5.152;2022-11-15T16:30:21;5.60;;;1.70;;
51288;SDS011;37372;52.294;5.152;2022-11-15T16:32:47;4.68;;;2.53;;
51288;SDS011;37372;52.294;5.152;2022-11-15T16:35:13;5.75;;;2.38;;
51288;SDS011;37372;52.294;5.152;2022-11-15T16:37:40;3.78;;;1.50;;
51288;SDS011;37372;52.294;5.152;2022-11-15T16:42:55;10.68;;;2.20;;
51288;SDS011;37372;52.294;5.152;2022-11-15T16:45:21;2.28;;;1.00;;
51288;SDS011;37372;52.294;5.152;2022-11-15T16:47:47;4.68;;;1.45;;
51288;SDS011;37372;52.294;5.152;2022-11-15T16:50:17;3.80;;;1.10;;
51288;SDS011;37372;52.294;5.152;2022-11-15T16:52:55;8.40;;;1.58;;
51288;SDS011;37372;52.294;5.152;2022-11-15T16:55:22;2.95;;;1.17;;
51288;SDS011;37372;52.294;5.152;2022-11-15T16:57:49;3.70;;;1.40;;
51288;SDS011;37372;52.294;5.152;2022-11-15T17:00:15;3.33;;;1.08;;
51288;SDS011;37372;52.294;5.152;2022-11-15T17:02:45;4.53;;;1.23;;
51288;SDS011;37372;52.294;5.152;2022-11-15T17:05:11;3.90;;;1.42;;
51288;SDS011;37372;52.294;5.152;2022-11-15T17:07:38;7.13;;;2.33;;